createdAt,value
2023-01-18T00:01:23.278Z,85.02
2023-01-18T00:03:51.502Z,85.08
2023-01-18T00:06:19.346Z,84.95
2023-01-18T00:08:50.457Z,85.05
2023-01-18T00:11:19.290Z,84.98
2023-01-18T00:13:48.218Z,84.67
2023-01-18T00:16:21.487Z,84.75
2023-01-18T00:18:58.603Z,84.89
2023-01-18T00:21:29.653Z,85.01
2023-01-18T00:23:58.193Z,84.81
2023-01-18T00:26:26.113Z,84.90
2023-01-18T00:28:57.359Z,84.65
2023-01-18T00:31:25.738Z,84.72
2023-01-18T00:33:53.667Z,85.18
2023-01-18T00:36:21.417Z,84.71
2023-01-18T00:38:54.324Z,84.66
2023-01-18T00:41:25.529Z,84.55
2023-01-18T00:43:54.267Z,84.52
2023-01-18T00:46:27.630Z,84.61
2023-01-18T00:48:57.592Z,84.62
2023-01-18T00:51:25.945Z,84.73
2023-01-18T00:53:56.524Z,84.39
2023-01-18T00:56:24.781Z,84.56
2023-01-18T00:58:52.682Z,84.49
2023-01-18T01:01:20.683Z,84.44
2023-01-18T01:04:07.341Z,84.25
2023-01-18T01:06:47.255Z,84.36
2023-01-18T01:09:23.114Z,84.41
2023-01-18T01:12:10.268Z,84.16
2023-01-18T01:15:00.581Z,84.29
2023-01-18T01:17:53.601Z,84.09
2023-01-18T01:20:41.594Z,83.89
2023-01-18T01:23:32.811Z,84.00
2023-01-18T01:26:14.518Z,84.07
2023-01-18T01:28:50.483Z,83.83
2023-01-18T01:31:20.418Z,84.10
2023-01-18T01:33:50.980Z,84.16
2023-01-18T01:36:26.537Z,84.31
2023-01-18T01:38:57.554Z,84.30
2023-01-18T01:41:33.140Z,83.69
2023-01-18T01:44:13.557Z,83.78
2023-01-18T01:46:56.389Z,83.81
2023-01-18T01:49:33.162Z,83.97
2023-01-18T01:52:06.775Z,83.71
2023-01-18T01:54:42.614Z,83.96
2023-01-18T01:57:31.546Z,83.71
2023-01-18T02:00:02.514Z,83.35
2023-01-18T02:02:42.889Z,83.46
2023-01-18T02:05:14.537Z,83.61
2023-01-18T02:07:42.551Z,83.36
2023-01-18T02:10:14.236Z,83.25
2023-01-18T02:12:47.464Z,83.29
2023-01-18T02:15:15.715Z,83.39
2023-01-18T02:18:05.401Z,83.16
2023-01-18T02:20:51.168Z,83.34
2023-01-18T02:23:47.076Z,83.13
2023-01-18T02:26:50.627Z,83.01
2023-01-18T02:29:28.832Z,83.20
2023-01-18T02:32:14.521Z,83.03
2023-01-18T02:35:02.109Z,83.07
2023-01-18T02:37:56.448Z,82.85
2023-01-18T02:40:57.991Z,83.03
2023-01-18T02:43:45.649Z,82.73
2023-01-18T02:46:31.117Z,82.60
2023-01-18T02:49:04.574Z,82.75
2023-01-18T02:51:33.222Z,82.66
2023-01-18T02:54:02.937Z,82.71
2023-01-18T02:56:53.002Z,82.33
2023-01-18T02:59:32.791Z,82.59
2023-01-18T03:02:17.519Z,82.89
2023-01-18T03:04:54.695Z,82.79
2023-01-18T03:07:29.162Z,82.57
2023-01-18T03:10:05.530Z,82.59
2023-01-18T03:12:56.503Z,82.48
2023-01-18T03:16:03.318Z,82.40
2023-01-18T03:19:06.141Z,82.14
2023-01-18T03:21:38.637Z,82.32
2023-01-18T03:24:09.720Z,82.01
2023-01-18T03:26:43.862Z,82.26
2023-01-18T03:29:33.779Z,81.88
2023-01-18T03:32:36.157Z,82.19
2023-01-18T03:35:10.587Z,82.12
2023-01-18T03:37:43.782Z,81.67
2023-01-18T03:40:11.763Z,81.87
2023-01-18T03:42:52.034Z,81.64
2023-01-18T03:45:28.918Z,82.02
2023-01-18T03:47:57.160Z,81.96
2023-01-18T03:50:52.211Z,81.96
2023-01-18T03:53:33.079Z,81.74
2023-01-18T03:56:27.597Z,81.76
2023-01-18T03:59:00.562Z,81.67
2023-01-18T04:01:29.218Z,81.45
2023-01-18T04:04:00.697Z,81.37
2023-01-18T04:06:29.559Z,80.78
2023-01-18T04:08:57.862Z,81.15
2023-01-18T04:11:25.793Z,80.83
2023-01-18T04:13:54.606Z,80.63
2023-01-18T04:16:23.032Z,81.09
2023-01-18T04:18:51.778Z,80.89
2023-01-18T04:21:19.567Z,80.81
2023-01-18T04:23:47.689Z,80.57
2023-01-18T04:26:16.906Z,80.78
2023-01-18T04:28:44.761Z,80.62
2023-01-18T04:31:13.072Z,80.56
2023-01-18T04:33:41.358Z,80.92
2023-01-18T04:36:10.558Z,80.58
2023-01-18T04:38:42.090Z,80.56
2023-01-18T04:41:10.178Z,81.06
2023-01-18T04:43:41.620Z,80.89
2023-01-18T04:46:13.214Z,80.71
2023-01-18T04:48:42.573Z,80.50
2023-01-18T04:51:15.004Z,81.32
2023-01-18T04:53:45.354Z,80.75
2023-01-18T04:56:13.486Z,80.97
2023-01-18T04:58:45.625Z,80.64
2023-01-18T05:01:14.517Z,80.55
2023-01-18T05:03:42.438Z,80.59
2023-01-18T05:06:12.721Z,80.19
2023-01-18T05:08:41.371Z,80.58
2023-01-18T05:11:14.324Z,79.85
2023-01-18T05:13:43.538Z,80.45
2023-01-18T05:16:20.634Z,79.46
2023-01-18T05:18:49.119Z,80.01
2023-01-18T05:21:17.624Z,79.86
2023-01-18T05:23:45.998Z,80.07
2023-01-18T05:26:22.837Z,79.91
2023-01-18T05:28:56.807Z,79.84
2023-01-18T05:31:28.075Z,80.06
2023-01-18T05:33:57.791Z,80.02
2023-01-18T05:36:26.162Z,79.94
2023-01-18T05:38:54.959Z,80.10
2023-01-18T05:41:22.990Z,79.65
2023-01-18T05:43:51.403Z,79.98
2023-01-18T05:46:19.364Z,79.14
2023-01-18T05:48:47.317Z,80.13
2023-01-18T05:51:15.602Z,80.07
2023-01-18T05:53:43.424Z,79.65
2023-01-18T05:56:14.417Z,79.49
2023-01-18T05:58:42.630Z,79.50
2023-01-18T06:01:10.541Z,79.60
2023-01-18T06:03:38.714Z,79.69
2023-01-18T06:06:09.481Z,79.35
2023-01-18T06:08:40.777Z,79.76
2023-01-18T06:11:12.223Z,79.37
2023-01-18T06:13:43.141Z,79.71
2023-01-18T06:16:12.465Z,79.57
2023-01-18T06:18:41.665Z,79.26
2023-01-18T06:21:11.123Z,79.79
2023-01-18T06:23:39.405Z,79.54
2023-01-18T06:26:07.368Z,79.52
2023-01-18T06:28:35.080Z,79.44
2023-01-18T06:31:05.199Z,79.37
2023-01-18T06:33:33.087Z,78.89
2023-01-18T06:36:01.867Z,78.92
2023-01-18T06:38:31.192Z,79.66
2023-01-18T06:40:59.046Z,79.19
2023-01-18T06:43:30.429Z,79.44
2023-01-18T06:45:58.843Z,79.40
2023-01-18T06:48:27.742Z,79.03
2023-01-18T06:50:58.976Z,78.79
2023-01-18T06:53:27.676Z,78.96
2023-01-18T06:55:59.115Z,79.25
2023-01-18T06:58:28.820Z,78.86
2023-01-18T07:00:58.405Z,79.13
2023-01-18T07:03:28.121Z,78.97
2023-01-18T07:05:59.063Z,78.98
2023-01-18T07:08:31.629Z,79.35
2023-01-18T07:11:05.364Z,79.05
2023-01-18T07:13:34.421Z,79.07
2023-01-18T07:16:03.593Z,79.01
2023-01-18T07:18:32.316Z,79.40
2023-01-18T07:21:09.691Z,78.92
2023-01-18T07:23:42.730Z,78.83
2023-01-18T07:26:16.810Z,78.78
2023-01-18T07:28:46.784Z,79.23
2023-01-18T07:31:17.213Z,79.09
2023-01-18T07:33:46.838Z,79.30
2023-01-18T07:36:14.826Z,79.18
2023-01-18T07:38:43.039Z,79.42
2023-01-18T07:41:16.402Z,79.39
2023-01-18T07:43:46.917Z,79.56
2023-01-18T07:46:21.789Z,79.58
2023-01-18T07:48:51.462Z,80.04
2023-01-18T07:51:23.510Z,80.03
2023-01-18T07:53:59.038Z,80.34
2023-01-18T07:56:30.309Z,80.07
2023-01-18T07:59:00.215Z,79.97
2023-01-18T08:01:30.470Z,80.01
2023-01-18T08:03:59.347Z,80.15
2023-01-18T08:06:29.381Z,80.09
2023-01-18T08:08:57.733Z,80.07
2023-01-18T08:11:31.728Z,79.90
2023-01-18T08:14:04.945Z,79.98
2023-01-18T08:16:34.934Z,80.02
2023-01-18T08:19:05.450Z,79.95
2023-01-18T08:21:39.798Z,79.79
2023-01-18T08:24:07.709Z,79.79
2023-01-18T08:26:38.247Z,79.87
2023-01-18T08:29:09.037Z,79.50
2023-01-18T08:31:38.940Z,79.58
2023-01-18T08:34:07.137Z,79.40
2023-01-18T08:36:36.215Z,79.63
2023-01-18T08:39:05.389Z,79.63
2023-01-18T08:41:42.148Z,79.64
2023-01-18T08:44:11.824Z,79.49
2023-01-18T08:46:41.041Z,79.56
2023-01-18T08:49:11.710Z,79.61
2023-01-18T08:51:40.736Z,79.58
2023-01-18T08:54:09.948Z,79.72
2023-01-18T08:56:39.842Z,79.70
2023-01-18T08:59:09.188Z,79.75
2023-01-18T09:01:39.239Z,79.89
2023-01-18T09:04:09.424Z,79.89
2023-01-18T09:06:40.279Z,80.05
2023-01-18T09:09:12.389Z,79.84
2023-01-18T09:11:46.452Z,79.68
2023-01-18T09:14:15.705Z,79.76
2023-01-18T09:16:53.035Z,79.77
2023-01-18T09:19:23.308Z,79.90
2023-01-18T09:21:58.188Z,79.65
2023-01-18T09:24:29.812Z,79.89
2023-01-18T09:26:59.470Z,79.80
2023-01-18T09:29:27.931Z,79.79
2023-01-18T09:31:58.587Z,79.84
2023-01-18T09:34:28.027Z,79.60
2023-01-18T09:36:57.571Z,79.64
2023-01-18T09:39:29.969Z,79.50
2023-01-18T09:42:06.228Z,79.34
2023-01-18T09:44:40.534Z,79.21
2023-01-18T09:47:16.858Z,79.52
2023-01-18T09:50:27.485Z,79.38
2023-01-18T09:53:28.521Z,79.45
2023-01-18T09:56:17.801Z,79.53
2023-01-18T09:59:05.078Z,79.78
2023-01-18T10:01:36.391Z,79.83
2023-01-18T10:04:10.002Z,80.14
2023-01-18T10:06:47.644Z,79.89
2023-01-18T10:09:24.356Z,79.99
2023-01-18T10:12:27.860Z,80.72
2023-01-18T10:15:21.099Z,80.18
2023-01-18T10:17:54.835Z,80.16
2023-01-18T10:20:42.651Z,80.58
2023-01-18T10:24:03.302Z,80.33
2023-01-18T10:26:43.733Z,80.27
2023-01-18T10:29:25.727Z,80.21
2023-01-18T10:32:18.007Z,80.37
2023-01-18T10:34:51.931Z,80.20
2023-01-18T10:37:45.436Z,79.83
2023-01-18T10:40:18.810Z,80.20
2023-01-18T10:43:05.935Z,79.84
2023-01-18T10:45:35.780Z,79.45
2023-01-18T10:48:23.009Z,79.42
2023-01-18T10:50:59.207Z,79.30
2023-01-18T10:53:39.656Z,79.48
2023-01-18T10:56:19.933Z,79.22
2023-01-18T10:58:55.911Z,78.97
2023-01-18T11:01:53.424Z,78.97
2023-01-18T11:04:34.166Z,78.81
2023-01-18T11:07:05.592Z,79.08
2023-01-18T11:09:44.538Z,78.87
2023-01-18T11:12:41.452Z,78.66
2023-01-18T11:15:15.372Z,78.41
2023-01-18T11:17:58.583Z,78.25
2023-01-18T11:20:46.365Z,77.97
2023-01-18T11:23:21.486Z,78.27
2023-01-18T11:25:59.024Z,78.27
2023-01-18T11:28:36.773Z,78.15
2023-01-18T11:31:21.155Z,77.99
2023-01-18T11:33:57.040Z,78.08
2023-01-18T11:36:36.253Z,78.28
2023-01-18T11:39:26.771Z,78.18
2023-01-18T11:42:37.289Z,78.14
2023-01-18T11:45:26.845Z,77.99
2023-01-18T11:48:13.492Z,78.01
2023-01-18T11:50:51.143Z,77.92
2023-01-18T11:53:50.670Z,77.95
2023-01-18T11:56:36.075Z,78.11
2023-01-18T11:59:14.030Z,78.11
2023-01-18T12:02:22.138Z,78.09
2023-01-18T12:05:15.050Z,78.13
2023-01-18T12:08:19.066Z,78.41
2023-01-18T12:10:50.426Z,78.21
2023-01-18T12:13:26.856Z,78.21
2023-01-18T12:16:22.454Z,78.02
2023-01-18T12:18:57.636Z,78.25
2023-01-18T12:21:49.966Z,78.46
2023-01-18T12:24:33.703Z,78.37
2023-01-18T12:27:32.448Z,78.23
2023-01-18T12:30:20.104Z,78.13
2023-01-18T12:33:42.257Z,78.03
2023-01-18T12:36:40.464Z,77.88
2023-01-18T12:39:34.116Z,77.94
2023-01-18T12:42:32.861Z,77.71
2023-01-18T12:45:19.000Z,78.17
2023-01-18T12:48:09.481Z,77.81
2023-01-18T12:50:46.166Z,77.54
2023-01-18T12:53:42.130Z,77.39
2023-01-18T12:56:24.902Z,77.55
2023-01-18T12:59:06.592Z,77.17
2023-01-18T13:01:43.331Z,77.25
2023-01-18T13:04:47.248Z,77.13
2023-01-18T13:07:27.288Z,77.31
2023-01-18T13:09:59.087Z,77.36
2023-01-18T13:12:33.929Z,76.86
2023-01-18T13:15:27.110Z,76.89
2023-01-18T13:18:08.435Z,76.28
2023-01-18T13:20:56.140Z,76.33
2023-01-18T13:23:49.483Z,76.46
2023-01-18T13:26:31.857Z,76.68
2023-01-18T13:29:23.315Z,76.50
2023-01-18T13:31:54.033Z,76.52
2023-01-18T13:34:48.270Z,76.93
2023-01-18T13:37:42.330Z,76.96
2023-01-18T13:40:33.208Z,77.04
2023-01-18T13:43:02.967Z,76.87
2023-01-18T13:45:33.890Z,76.77
2023-01-18T13:48:07.973Z,75.71
2023-01-18T13:50:45.509Z,76.39
2023-01-18T13:53:32.251Z,76.65
2023-01-18T13:56:06.467Z,76.55
2023-01-18T13:58:41.546Z,76.46
2023-01-18T14:01:24.711Z,76.97
2023-01-18T14:03:57.612Z,76.84
2023-01-18T14:06:31.826Z,76.67
2023-01-18T14:09:07.652Z,76.35
2023-01-18T14:11:45.881Z,76.55
2023-01-18T14:14:19.654Z,76.38
2023-01-18T14:17:16.070Z,75.97
2023-01-18T14:19:48.887Z,76.48
2023-01-18T14:22:22.364Z,76.51
2023-01-18T14:25:12.087Z,76.04
2023-01-18T14:27:47.897Z,76.64
2023-01-18T14:30:31.594Z,75.95
2023-01-18T14:33:11.250Z,76.09
2023-01-18T14:35:52.979Z,75.87
2023-01-18T14:38:23.674Z,76.10
2023-01-18T14:41:00.925Z,75.55
2023-01-18T14:43:38.415Z,75.49
2023-01-18T14:46:20.853Z,75.55
2023-01-18T14:48:58.438Z,75.94
2023-01-18T14:51:32.421Z,75.57
2023-01-18T14:54:07.421Z,75.94
2023-01-18T14:56:44.166Z,75.79
2023-01-18T14:59:25.857Z,75.80
2023-01-18T15:02:07.219Z,75.76
2023-01-18T15:04:40.975Z,75.63
2023-01-18T15:07:21.222Z,75.88
2023-01-18T15:09:54.875Z,75.71
2023-01-18T15:12:37.613Z,75.95
2023-01-18T15:15:33.219Z,75.96
2023-01-18T15:18:24.766Z,75.88
2023-01-18T15:21:00.045Z,76.29
2023-01-18T15:23:34.139Z,76.24
2023-01-18T15:26:07.249Z,76.07
2023-01-18T15:28:37.963Z,76.11
2023-01-18T15:31:17.183Z,76.18
2023-01-18T15:33:47.055Z,76.11
2023-01-18T15:36:19.114Z,76.36
2023-01-18T15:38:52.251Z,76.74
2023-01-18T15:41:22.106Z,76.69
2023-01-18T15:43:55.642Z,76.84
2023-01-18T15:46:29.844Z,77.16
2023-01-18T15:49:04.879Z,77.12
2023-01-18T15:51:57.661Z,77.24
2023-01-18T15:54:33.451Z,77.61
2023-01-18T15:57:19.295Z,77.51
2023-01-18T15:59:51.747Z,77.72
2023-01-18T16:02:29.856Z,77.95
2023-01-18T16:05:32.713Z,77.75
2023-01-18T16:08:21.406Z,78.15
2023-01-18T16:11:02.411Z,78.10
2023-01-18T16:13:35.121Z,78.19
2023-01-18T16:16:18.660Z,78.79
2023-01-18T16:21:43.654Z,79.05
2023-01-18T16:24:39.173Z,78.65
2023-01-18T16:27:18.713Z,78.66
2023-01-18T16:29:54.951Z,78.76
2023-01-18T16:32:32.206Z,78.78
2023-01-18T16:35:24.643Z,79.22
2023-01-18T16:37:58.530Z,79.09
2023-01-18T16:40:31.046Z,79.14
2023-01-18T16:43:20.325Z,79.49
2023-01-18T16:45:55.456Z,79.55
2023-01-18T16:48:26.750Z,79.34
2023-01-18T16:50:56.653Z,79.13
2023-01-18T16:53:29.524Z,79.55
2023-01-18T16:56:01.037Z,79.56
2023-01-18T16:58:31.483Z,79.83
2023-01-18T17:01:10.116Z,79.51
2023-01-18T17:03:42.274Z,79.70
2023-01-18T17:06:24.534Z,79.91
2023-01-18T17:08:56.651Z,80.03
2023-01-18T17:11:28.482Z,79.96
2023-01-18T17:14:06.053Z,80.04
2023-01-18T17:16:42.865Z,79.95
2023-01-18T17:19:17.332Z,80.16
2023-01-18T17:21:50.625Z,80.16
2023-01-18T17:24:26.080Z,80.50
2023-01-18T17:26:55.687Z,80.45
2023-01-18T17:29:26.055Z,80.33
2023-01-18T17:34:44.629Z,80.52
2023-01-18T17:37:16.546Z,80.59
2023-01-18T17:40:02.728Z,80.91
2023-01-18T17:42:40.505Z,80.84
2023-01-18T17:48:03.239Z,80.82
2023-01-18T17:50:36.007Z,81.16
2023-01-18T17:53:05.210Z,80.98
2023-01-18T17:55:38.130Z,80.77
2023-01-18T17:58:08.980Z,81.02
2023-01-18T18:00:44.197Z,81.18
2023-01-18T18:03:13.698Z,81.21
2023-01-18T18:05:44.823Z,81.56
2023-01-18T18:08:19.682Z,81.53
2023-01-18T18:10:52.140Z,81.54
2023-01-18T18:13:24.222Z,81.49
2023-01-18T18:15:55.216Z,81.58
2023-01-18T18:18:24.823Z,81.53
2023-01-18T18:21:07.631Z,81.84
2023-01-18T18:23:38.606Z,81.83
2023-01-18T18:26:09.575Z,81.80
2023-01-18T18:28:43.023Z,82.10
2023-01-18T18:31:16.362Z,82.22
2023-01-18T18:36:35.692Z,82.27
2023-01-18T18:39:08.861Z,81.96
2023-01-18T18:41:40.141Z,82.16
2023-01-18T18:44:10.756Z,82.40
2023-01-18T18:46:41.802Z,82.28
2023-01-18T18:49:12.044Z,82.70
2023-01-18T18:51:46.503Z,82.66
2023-01-18T18:54:18.252Z,82.46
2023-01-18T18:56:49.452Z,82.70
2023-01-18T18:59:22.863Z,82.63
2023-01-18T19:01:53.257Z,82.50
2023-01-18T19:04:22.938Z,82.78
2023-01-18T19:06:51.310Z,83.29
2023-01-18T19:09:21.717Z,82.91
2023-01-18T19:11:55.454Z,82.91
2023-01-18T19:14:27.296Z,82.99
2023-01-18T19:16:58.976Z,82.88
2023-01-18T19:19:27.655Z,82.87
2023-01-18T19:21:57.768Z,83.02
2023-01-18T19:24:34.293Z,83.03
2023-01-18T19:27:05.339Z,83.28
2023-01-18T19:29:36.131Z,83.10
2023-01-18T19:32:07.307Z,83.32
2023-01-18T19:34:39.589Z,83.38
2023-01-18T19:37:09.124Z,83.38
2023-01-18T19:39:39.419Z,83.39
2023-01-18T19:42:11.453Z,83.65
2023-01-18T19:44:41.334Z,83.34
2023-01-18T19:47:10.844Z,83.60
2023-01-18T19:49:41.893Z,83.43
2023-01-18T19:52:12.985Z,83.67
2023-01-18T19:54:43.063Z,83.66
2023-01-18T19:57:13.695Z,83.74
2023-01-18T19:59:43.648Z,83.97
2023-01-18T20:02:14.638Z,84.08
2023-01-18T20:04:43.783Z,84.26
2023-01-18T20:07:13.303Z,83.93
2023-01-18T20:09:43.537Z,84.37
2023-01-18T20:12:15.197Z,83.96
2023-01-18T20:14:45.437Z,84.05
2023-01-18T20:17:17.686Z,84.02
2023-01-18T20:19:45.911Z,84.15
2023-01-18T20:22:14.233Z,84.24
2023-01-18T20:24:45.796Z,84.20
2023-01-18T20:27:19.353Z,84.12
2023-01-18T20:29:47.485Z,84.24
2023-01-18T20:32:17.410Z,84.38
2023-01-18T20:34:47.583Z,84.42
2023-01-18T20:37:16.701Z,84.26
2023-01-18T20:39:44.890Z,84.37
2023-01-18T20:42:12.881Z,84.21
2023-01-18T20:44:41.156Z,84.46
2023-01-18T20:47:10.023Z,84.29
2023-01-18T20:49:40.494Z,84.36
2023-01-18T20:52:09.850Z,84.17
2023-01-18T20:54:38.051Z,84.27
2023-01-18T20:57:07.461Z,84.22
2023-01-18T20:59:38.986Z,84.23
2023-01-18T21:02:07.704Z,84.34
2023-01-18T21:04:39.042Z,84.85
2023-01-18T21:07:09.818Z,84.43
2023-01-18T21:09:38.180Z,84.46
2023-01-18T21:12:06.121Z,84.31
2023-01-18T21:14:33.833Z,84.18
2023-01-18T21:17:02.138Z,84.30
2023-01-18T21:19:30.184Z,84.12
2023-01-18T21:21:58.028Z,84.21
2023-01-18T21:24:26.653Z,84.33
2023-01-18T21:26:54.569Z,84.18
2023-01-18T21:29:22.557Z,84.22
2023-01-18T21:31:53.931Z,84.46
2023-01-18T21:34:22.358Z,84.56
2023-01-18T21:36:51.705Z,84.67
2023-01-18T21:39:25.779Z,84.65
2023-01-18T21:42:13.768Z,84.54
2023-01-18T21:45:00.159Z,84.71
2023-01-18T21:47:28.356Z,84.53
2023-01-18T21:50:18.633Z,84.68
2023-01-18T21:53:05.612Z,84.46
2023-01-18T21:55:33.904Z,84.71
2023-01-18T21:58:20.891Z,84.58
2023-01-18T22:00:48.726Z,84.61
2023-01-18T22:03:18.706Z,84.71
2023-01-18T22:05:46.403Z,85.06
2023-01-18T22:08:14.162Z,85.04
2023-01-18T22:10:45.700Z,84.87
2023-01-18T22:13:13.551Z,85.00
2023-01-18T22:15:41.386Z,84.85
2023-01-18T22:20:57.599Z,85.06
2023-01-18T22:23:25.710Z,85.11
2023-01-18T22:25:56.497Z,85.21
2023-01-18T22:28:24.295Z,85.23
2023-01-18T22:30:52.705Z,85.24
2023-01-18T22:33:20.735Z,84.96
2023-01-18T22:35:48.401Z,84.96
2023-01-18T22:38:16.716Z,84.98
2023-01-18T22:40:44.642Z,84.91
2023-01-18T22:43:12.453Z,85.00
2023-01-18T22:45:40.715Z,85.18
2023-01-18T22:48:08.443Z,85.28
2023-01-18T22:50:36.369Z,85.11
2023-01-18T22:53:06.044Z,85.21
2023-01-18T22:55:34.556Z,85.17
2023-01-18T22:58:02.765Z,85.63
2023-01-18T23:00:32.265Z,85.53
2023-01-18T23:03:00.207Z,85.60
2023-01-18T23:05:28.069Z,85.41
2023-01-18T23:07:56.410Z,85.75
2023-01-18T23:10:24.159Z,85.87
2023-01-18T23:12:53.602Z,85.93
2023-01-18T23:15:40.436Z,85.88
2023-01-18T23:18:08.292Z,85.76
2023-01-18T23:20:39.924Z,85.54
2023-01-18T23:23:07.896Z,85.51
2023-01-18T23:25:36.119Z,85.48
2023-01-18T23:28:05.442Z,85.74
2023-01-18T23:30:33.365Z,85.65
2023-01-18T23:33:04.737Z,85.57
2023-01-18T23:35:35.340Z,85.84
2023-01-18T23:38:06.915Z,85.55
2023-01-18T23:40:53.088Z,85.25
2023-01-18T23:43:39.889Z,85.42
2023-01-18T23:46:26.367Z,85.51
2023-01-18T23:49:13.355Z,85.46
2023-01-18T23:52:02.334Z,85.47
2023-01-18T23:54:30.732Z,85.50
2023-01-18T23:56:58.573Z,85.39
2023-01-18T23:59:29.919Z,85.47
